createdAt,value
2018-07-20T00:01:17.013Z,22.50
2018-07-20T00:03:45.347Z,22.30
2018-07-20T00:06:13.687Z,22.40
2018-07-20T00:11:10.045Z,22.20
2018-07-20T00:13:38.535Z,22.10
2018-07-20T00:16:06.872Z,22.10
2018-07-20T00:18:35.768Z,22.00
2018-07-20T00:21:04.088Z,21.90
2018-07-20T00:23:32.423Z,22.00
2018-07-20T00:26:00.723Z,22.00
2018-07-20T00:28:29.027Z,21.90
2018-07-20T00:30:57.370Z,21.90
2018-07-20T00:33:25.647Z,21.80
2018-07-20T00:35:53.976Z,21.70
2018-07-20T00:38:22.276Z,21.70
2018-07-20T00:40:50.608Z,21.60
2018-07-20T00:43:18.931Z,21.60
2018-07-20T00:45:47.242Z,21.50
2018-07-20T00:48:15.536Z,21.50
2018-07-20T00:50:43.866Z,21.50
2018-07-20T00:53:12.407Z,21.40
2018-07-20T00:55:40.718Z,21.20
2018-07-20T00:58:09.066Z,21.20
2018-07-20T01:00:37.376Z,21.20
2018-07-20T01:03:05.853Z,21.20
2018-07-20T01:05:34.236Z,21.00
2018-07-20T01:08:02.810Z,20.90
2018-07-20T01:10:31.260Z,20.80
2018-07-20T01:12:59.668Z,20.80
2018-07-20T01:15:27.974Z,20.90
2018-07-20T01:17:56.294Z,20.90
2018-07-20T01:20:24.650Z,20.80
2018-07-20T01:22:52.931Z,20.80
2018-07-20T01:25:21.251Z,20.60
2018-07-20T01:27:49.523Z,20.70
2018-07-20T01:30:17.982Z,20.70
2018-07-20T01:32:46.299Z,20.70
2018-07-20T01:35:14.612Z,20.70
2018-07-20T01:37:42.925Z,20.70
2018-07-20T01:40:11.234Z,20.60
2018-07-20T01:42:39.563Z,20.70
2018-07-20T01:45:07.927Z,20.60
2018-07-20T01:47:36.262Z,20.60
2018-07-20T01:50:05.167Z,20.60
2018-07-20T01:52:33.613Z,20.50
2018-07-20T01:55:01.922Z,20.50
2018-07-20T01:57:30.223Z,20.50
2018-07-20T01:59:58.548Z,20.50
2018-07-20T02:02:26.855Z,20.50
2018-07-20T02:04:55.166Z,20.50
2018-07-20T02:07:23.885Z,20.50
2018-07-20T02:09:52.226Z,20.50
2018-07-20T02:12:20.970Z,20.40
2018-07-20T02:14:49.327Z,20.30
2018-07-20T02:17:17.623Z,20.40
2018-07-20T02:19:45.939Z,20.30
2018-07-20T02:22:14.352Z,20.30
2018-07-20T02:24:42.663Z,20.20
2018-07-20T02:27:10.999Z,20.30
2018-07-20T02:29:39.282Z,20.30
2018-07-20T02:32:07.592Z,20.20
2018-07-20T02:34:35.877Z,20.20
2018-07-20T02:37:04.188Z,20.00
2018-07-20T02:39:32.519Z,20.00
2018-07-20T02:42:00.895Z,19.90
2018-07-20T02:44:29.195Z,20.00
2018-07-20T02:46:57.544Z,19.90
2018-07-20T02:49:25.823Z,19.80
2018-07-20T02:51:54.147Z,19.80
2018-07-20T02:54:22.534Z,19.80
2018-07-20T02:56:50.908Z,19.60
2018-07-20T02:59:19.259Z,19.70
2018-07-20T03:01:47.607Z,19.70
2018-07-20T03:04:15.904Z,19.60
2018-07-20T03:06:44.276Z,19.60
2018-07-20T03:09:13.629Z,19.60
2018-07-20T03:11:43.060Z,19.60
2018-07-20T03:14:11.531Z,19.60
2018-07-20T03:16:40.041Z,19.60
2018-07-20T03:19:08.781Z,19.50
2018-07-20T03:21:37.080Z,19.50
2018-07-20T03:24:05.380Z,19.50
2018-07-20T03:26:33.677Z,19.50
2018-07-20T03:29:02.012Z,19.50
2018-07-20T03:31:30.359Z,19.60
2018-07-20T03:33:58.669Z,19.50
2018-07-20T03:36:27.027Z,19.40
2018-07-20T03:38:55.351Z,19.40
2018-07-20T03:41:23.655Z,19.50
2018-07-20T03:43:51.941Z,19.50
2018-07-20T03:46:20.261Z,19.50
2018-07-20T03:48:48.549Z,19.50
2018-07-20T03:51:16.884Z,19.40
2018-07-20T03:53:45.205Z,19.50
2018-07-20T03:56:13.504Z,19.30
2018-07-20T03:58:41.788Z,19.40
2018-07-20T04:01:10.095Z,19.40
2018-07-20T04:03:38.404Z,19.40
2018-07-20T04:06:06.745Z,19.50
2018-07-20T04:08:35.060Z,19.50
2018-07-20T04:11:03.368Z,19.50
2018-07-20T04:13:31.688Z,19.50
2018-07-20T04:15:59.977Z,19.50
2018-07-20T04:18:28.287Z,19.50
2018-07-20T04:20:56.644Z,19.50
2018-07-20T04:23:24.958Z,19.40
2018-07-20T04:25:53.271Z,19.30
2018-07-20T04:28:21.596Z,19.40
2018-07-20T04:33:17.937Z,19.40
2018-07-20T04:35:46.224Z,19.40
2018-07-20T04:38:14.563Z,19.40
2018-07-20T04:40:42.861Z,19.40
2018-07-20T04:43:11.168Z,19.40
2018-07-20T04:45:39.516Z,19.40
2018-07-20T04:48:07.823Z,19.40
2018-07-20T04:50:37.901Z,19.40
2018-07-20T04:53:08.746Z,19.40
2018-07-20T04:55:38.115Z,19.40
2018-07-20T04:58:06.429Z,19.40
2018-07-20T05:00:34.730Z,19.40
2018-07-20T05:03:04.037Z,19.30
2018-07-20T05:05:32.382Z,19.30
2018-07-20T05:08:01.567Z,19.30
2018-07-20T05:10:30.114Z,19.30
2018-07-20T05:12:58.428Z,19.40
2018-07-20T05:15:26.763Z,19.40
2018-07-20T05:17:55.056Z,19.50
2018-07-20T05:20:23.417Z,19.60
2018-07-20T05:22:51.751Z,19.50
2018-07-20T05:25:20.168Z,19.60
2018-07-20T05:27:48.484Z,19.60
2018-07-20T05:30:17.031Z,19.70
2018-07-20T05:32:45.343Z,19.70
2018-07-20T05:35:18.068Z,19.70
2018-07-20T05:37:46.394Z,19.70
2018-07-20T05:40:14.820Z,19.70
2018-07-20T05:42:43.216Z,19.70
2018-07-20T05:45:11.573Z,19.70
2018-07-20T05:47:39.913Z,19.80
2018-07-20T05:50:09.222Z,19.80
2018-07-20T05:52:37.530Z,19.80
2018-07-20T05:55:06.177Z,19.90
2018-07-20T05:57:34.584Z,19.80
2018-07-20T06:00:02.896Z,19.80
2018-07-20T06:02:31.249Z,19.90
2018-07-20T06:04:59.592Z,20.00
2018-07-20T06:07:27.927Z,20.00
2018-07-20T06:09:56.246Z,20.10
2018-07-20T06:12:24.593Z,20.10
2018-07-20T06:14:52.939Z,20.20
2018-07-20T06:17:21.281Z,20.10
2018-07-20T06:19:49.621Z,20.20
2018-07-20T06:22:19.851Z,20.30
2018-07-20T06:27:18.652Z,20.40
2018-07-20T06:29:49.785Z,20.50
2018-07-20T06:32:18.143Z,20.50
2018-07-20T06:34:46.475Z,20.50
2018-07-20T06:37:18.969Z,20.60
2018-07-20T06:39:49.914Z,20.60
2018-07-20T06:42:20.921Z,20.70
2018-07-20T06:44:49.230Z,20.70
2018-07-20T06:47:17.550Z,21.00
2018-07-20T06:49:45.918Z,21.00
2018-07-20T06:52:14.210Z,21.20
2018-07-20T06:54:42.504Z,21.20
2018-07-20T06:57:11.134Z,21.40
2018-07-20T06:59:39.478Z,21.60
2018-07-20T07:02:07.828Z,21.70
2018-07-20T07:04:36.116Z,21.80
2018-07-20T07:07:04.686Z,21.90
2018-07-20T07:09:33.096Z,22.10
2018-07-20T07:12:01.312Z,22.10
2018-07-20T07:14:29.656Z,22.20
2018-07-20T07:16:57.980Z,22.40
2018-07-20T07:21:54.415Z,22.50
2018-07-20T07:26:50.801Z,22.80
2018-07-20T07:29:19.189Z,23.00
2018-07-20T07:31:47.532Z,23.10
2018-07-20T07:34:15.905Z,23.20
2018-07-20T07:36:44.197Z,23.30
2018-07-20T07:39:13.207Z,23.40
2018-07-20T07:41:41.815Z,23.40
2018-07-20T07:44:10.130Z,23.50
2018-07-20T07:46:38.487Z,23.60
2018-07-20T07:49:07.263Z,23.60
2018-07-20T07:51:35.610Z,23.70
2018-07-20T07:54:03.948Z,23.90
2018-07-20T07:56:32.265Z,24.00
2018-07-20T07:59:00.792Z,24.20
2018-07-20T08:01:39.256Z,24.20
2018-07-20T08:04:07.645Z,24.40
2018-07-20T08:06:35.983Z,24.50
2018-07-20T08:09:07.682Z,24.60
2018-07-20T08:11:36.391Z,24.60
2018-07-20T08:14:04.761Z,24.80
2018-07-20T08:16:34.242Z,24.80
2018-07-20T08:19:04.124Z,24.90
2018-07-20T08:21:35.248Z,25.00
2018-07-20T08:24:03.621Z,25.10
2018-07-20T08:26:32.800Z,25.10
2018-07-20T08:29:01.515Z,25.30
2018-07-20T08:31:29.961Z,25.40
2018-07-20T08:33:58.366Z,25.50
2018-07-20T08:36:26.756Z,25.60
2018-07-20T08:38:55.181Z,25.60
2018-07-20T08:41:23.525Z,25.70
2018-07-20T08:43:52.129Z,25.80
2018-07-20T08:46:20.455Z,25.90
2018-07-20T08:48:48.903Z,26.10
2018-07-20T08:51:17.625Z,26.10
2018-07-20T08:53:46.308Z,26.20
2018-07-20T08:56:14.776Z,26.30
2018-07-20T08:58:43.164Z,26.30
2018-07-20T09:01:12.080Z,26.40
2018-07-20T09:03:41.139Z,26.50
2018-07-20T09:06:09.789Z,26.50
2018-07-20T09:08:38.437Z,26.60
2018-07-20T09:11:06.789Z,26.70
2018-07-20T09:13:35.463Z,26.80
2018-07-20T09:16:04.200Z,26.80
2018-07-20T09:18:32.540Z,26.80
2018-07-20T09:21:00.998Z,26.90
2018-07-20T09:23:29.263Z,27.00
2018-07-20T09:25:57.590Z,27.00
2018-07-20T09:28:25.998Z,27.10
2018-07-20T09:30:54.388Z,27.10
2018-07-20T09:33:22.770Z,27.10
2018-07-20T09:35:51.159Z,27.20
2018-07-20T09:38:19.590Z,27.30
2018-07-20T09:40:47.935Z,27.40
2018-07-20T09:43:16.423Z,27.60
2018-07-20T09:45:44.873Z,27.60
2018-07-20T09:48:13.229Z,27.80
2018-07-20T09:50:41.588Z,27.90
2018-07-20T09:53:10.090Z,28.00
2018-07-20T09:55:38.436Z,28.10
2018-07-20T09:58:07.095Z,28.20
2018-07-20T10:00:52.942Z,28.20
2018-07-20T10:03:22.216Z,28.40
2018-07-20T10:05:50.598Z,28.40
2018-07-20T10:08:20.052Z,28.50
2018-07-20T10:10:48.425Z,28.60
2018-07-20T10:13:17.547Z,28.60
2018-07-20T10:15:46.169Z,28.70
2018-07-20T10:18:15.428Z,28.80
2018-07-20T10:20:44.020Z,28.80
2018-07-20T10:23:12.342Z,28.90
2018-07-20T10:25:40.833Z,28.90
2018-07-20T10:28:09.366Z,29.00
2018-07-20T10:30:38.041Z,29.00
2018-07-20T10:33:06.421Z,29.10
2018-07-20T10:35:34.764Z,29.20
2018-07-20T10:38:03.101Z,29.30
2018-07-20T10:40:31.462Z,29.30
2018-07-20T10:42:59.809Z,29.20
2018-07-20T10:45:28.261Z,29.30
2018-07-20T10:47:56.843Z,29.30
2018-07-20T10:50:25.179Z,29.30
2018-07-20T10:52:53.543Z,29.40
2018-07-20T10:55:21.917Z,29.60
2018-07-20T10:57:50.234Z,29.50
2018-07-20T11:00:18.604Z,29.60
2018-07-20T11:02:47.279Z,29.60
2018-07-20T11:05:15.836Z,29.70
2018-07-20T11:07:44.215Z,29.70
2018-07-20T11:10:12.627Z,29.90
2018-07-20T11:12:40.963Z,29.90
2018-07-20T11:15:09.302Z,29.90
2018-07-20T11:17:37.604Z,29.90
2018-07-20T11:20:05.986Z,30.00
2018-07-20T11:22:34.291Z,30.00
2018-07-20T11:25:02.628Z,30.10
2018-07-20T11:27:30.980Z,29.90
2018-07-20T11:29:59.284Z,29.80
2018-07-20T11:32:27.639Z,29.80
2018-07-20T11:34:55.995Z,29.80
2018-07-20T11:37:24.373Z,30.00
2018-07-20T11:39:52.704Z,30.00
2018-07-20T11:42:21.041Z,30.20
2018-07-20T11:44:49.496Z,30.30
2018-07-20T11:47:17.801Z,30.40
2018-07-20T11:49:46.175Z,30.60
2018-07-20T11:54:42.591Z,30.60
2018-07-20T11:57:10.912Z,30.60
2018-07-20T11:59:39.337Z,30.70
2018-07-20T12:02:07.733Z,30.70
2018-07-20T12:04:36.084Z,30.70
2018-07-20T12:07:04.432Z,30.70
2018-07-20T12:09:32.800Z,30.80
2018-07-20T12:12:01.128Z,30.80
2018-07-20T12:14:29.730Z,31.00
2018-07-20T12:16:58.067Z,31.00
2018-07-20T12:19:26.892Z,31.10
2018-07-20T12:21:55.296Z,31.00
2018-07-20T12:24:23.677Z,31.00
2018-07-20T12:26:52.031Z,31.00
2018-07-20T12:29:20.550Z,31.00
2018-07-20T12:31:48.915Z,31.10
2018-07-20T12:34:17.271Z,31.30
2018-07-20T12:36:45.614Z,31.40
2018-07-20T12:39:13.932Z,31.40
2018-07-20T12:41:42.836Z,31.30
2018-07-20T12:44:11.188Z,31.40
2018-07-20T12:46:39.597Z,31.50
2018-07-20T12:49:07.895Z,31.60
2018-07-20T12:51:36.286Z,31.60
2018-07-20T12:54:04.805Z,31.70
2018-07-20T12:56:33.127Z,31.80
2018-07-20T12:59:01.510Z,32.00
2018-07-20T13:01:29.791Z,32.20
2018-07-20T13:03:58.120Z,32.30
2018-07-20T13:06:26.426Z,32.40
2018-07-20T13:08:54.782Z,32.60
2018-07-20T13:11:23.119Z,32.80
2018-07-20T13:13:51.437Z,32.80
2018-07-20T13:16:19.752Z,33.00
2018-07-20T13:18:48.077Z,33.10
2018-07-20T13:21:16.390Z,33.20
2018-07-20T13:23:44.723Z,33.50
2018-07-20T13:26:13.012Z,33.80
2018-07-20T13:28:41.331Z,33.90
2018-07-20T13:31:09.631Z,34.10
2018-07-20T13:33:38.025Z,34.30
2018-07-20T13:36:06.380Z,34.40
2018-07-20T13:38:34.683Z,34.60
2018-07-20T13:41:02.984Z,34.70
2018-07-20T13:43:31.331Z,34.90
2018-07-20T13:45:59.652Z,35.00
2018-07-20T13:48:27.951Z,35.30
2018-07-20T13:50:57.590Z,35.50
2018-07-20T13:53:25.937Z,35.50
2018-07-20T13:55:54.247Z,35.90
2018-07-20T13:58:22.580Z,36.10
2018-07-20T14:00:50.975Z,35.80
2018-07-20T14:03:19.257Z,36.10
2018-07-20T14:05:47.600Z,36.30
2018-07-20T14:08:15.910Z,36.30
2018-07-20T14:10:44.307Z,36.40
2018-07-20T14:13:12.615Z,36.50
2018-07-20T14:15:40.943Z,36.70
2018-07-20T14:18:09.378Z,37.10
2018-07-20T14:20:37.696Z,37.10
2018-07-20T14:23:06.008Z,37.60
2018-07-20T14:25:34.344Z,37.70
2018-07-20T14:28:02.685Z,37.20
2018-07-20T14:30:30.996Z,37.30
2018-07-20T14:32:59.267Z,37.30
2018-07-20T14:35:27.664Z,37.30
2018-07-20T14:37:55.988Z,37.30
2018-07-20T14:42:58.974Z,37.10
2018-07-20T14:45:27.314Z,37.40
2018-07-20T14:47:55.627Z,37.50
2018-07-20T14:50:23.946Z,36.80
2018-07-20T14:52:52.299Z,36.20
2018-07-20T14:55:20.614Z,35.70
2018-07-20T15:00:17.122Z,35.00
2018-07-20T15:02:45.423Z,34.90
2018-07-20T15:05:13.766Z,34.70
2018-07-20T15:07:42.092Z,34.50
2018-07-20T15:10:10.411Z,34.20
2018-07-20T15:12:38.760Z,34.20
2018-07-20T15:15:08.144Z,34.50
2018-07-20T15:17:36.718Z,34.80
2018-07-20T15:20:05.892Z,35.30
2018-07-20T15:22:34.370Z,35.00
2018-07-20T15:25:02.691Z,35.60
2018-07-20T15:27:31.188Z,35.90
2018-07-20T15:29:59.514Z,35.90
2018-07-20T15:32:27.853Z,36.10
2018-07-20T15:34:56.195Z,36.50
2018-07-20T15:37:24.522Z,36.90
2018-07-20T15:39:52.850Z,37.60
2018-07-20T15:42:21.641Z,38.00
2018-07-20T15:44:50.160Z,38.40
2018-07-20T15:47:18.527Z,38.60
2018-07-20T15:49:46.813Z,38.80
2018-07-20T15:54:43.490Z,38.10
2018-07-20T15:57:11.811Z,37.50
2018-07-20T15:59:40.230Z,37.10
2018-07-20T16:02:08.472Z,36.90
2018-07-20T16:04:36.815Z,36.50
2018-07-20T16:07:05.188Z,36.10
2018-07-20T16:09:33.500Z,35.80
2018-07-20T16:12:01.810Z,35.00
2018-07-20T16:14:30.110Z,34.40
2018-07-20T16:16:58.467Z,34.10
2018-07-20T16:19:26.745Z,34.10
2018-07-20T16:21:55.109Z,34.00
2018-07-20T16:24:23.448Z,33.90
2018-07-20T16:26:51.793Z,33.50
2018-07-20T16:29:20.138Z,33.40
2018-07-20T16:31:48.446Z,33.30
2018-07-20T16:34:16.738Z,33.30
2018-07-20T16:36:45.068Z,33.40
2018-07-20T16:39:13.376Z,33.30
2018-07-20T16:41:41.728Z,33.10
2018-07-20T16:44:10.021Z,33.00
2018-07-20T16:46:38.340Z,33.10
2018-07-20T16:49:06.624Z,33.10
2018-07-20T16:51:34.967Z,32.80
2018-07-20T16:54:03.276Z,32.70
2018-07-20T16:56:31.594Z,32.50
2018-07-20T16:58:59.899Z,32.50
2018-07-20T17:01:28.248Z,32.60
2018-07-20T17:03:56.555Z,32.60
2018-07-20T17:06:24.873Z,32.50
2018-07-20T17:08:53.384Z,32.60
2018-07-20T17:11:21.715Z,32.50
2018-07-20T17:13:50.065Z,32.40
2018-07-20T17:16:18.388Z,32.30
2018-07-20T17:18:46.730Z,32.20
2018-07-20T17:21:15.383Z,32.00
2018-07-20T17:23:43.735Z,32.10
2018-07-20T17:26:12.043Z,32.10
2018-07-20T17:28:40.355Z,32.00
2018-07-20T17:31:08.667Z,32.10
2018-07-20T17:33:37.050Z,32.00
2018-07-20T17:36:05.464Z,31.90
2018-07-20T17:38:33.819Z,31.90
2018-07-20T17:41:02.129Z,31.90
2018-07-20T17:43:30.474Z,31.70
2018-07-20T17:45:58.780Z,31.70
2018-07-20T17:48:27.134Z,31.70
2018-07-20T17:50:55.457Z,31.60
2018-07-20T17:53:23.785Z,31.70
2018-07-20T17:55:52.146Z,31.50
2018-07-20T17:58:20.472Z,31.50
2018-07-20T18:00:48.788Z,31.50
2018-07-20T18:03:17.147Z,31.40
2018-07-20T18:05:45.484Z,31.30
2018-07-20T18:08:13.834Z,31.30
2018-07-20T18:10:42.152Z,31.20
2018-07-20T18:13:10.485Z,31.10
2018-07-20T18:15:38.940Z,31.10
2018-07-20T18:18:07.318Z,31.10
2018-07-20T18:20:35.676Z,31.00
2018-07-20T18:23:03.995Z,31.00
2018-07-20T18:25:32.309Z,30.90
2018-07-20T18:28:00.684Z,31.00
2018-07-20T18:30:28.980Z,30.90
2018-07-20T18:32:57.336Z,30.80
2018-07-20T18:35:25.641Z,30.70
2018-07-20T18:37:53.986Z,30.70
2018-07-20T18:40:28.736Z,30.60
2018-07-20T18:42:57.102Z,30.60
2018-07-20T18:45:25.421Z,30.60
2018-07-20T18:47:53.728Z,30.60
2018-07-20T18:50:22.063Z,30.50
2018-07-20T18:52:50.429Z,30.30
2018-07-20T18:55:18.748Z,30.30
2018-07-20T18:57:47.134Z,30.30
2018-07-20T19:00:15.554Z,30.30
2018-07-20T19:02:43.878Z,30.20
2018-07-20T19:05:12.318Z,30.00
2018-07-20T19:07:40.667Z,30.00
2018-07-20T19:10:09.003Z,30.00
2018-07-20T19:12:37.371Z,30.00
2018-07-20T19:17:33.738Z,29.80
2018-07-20T19:20:02.058Z,29.90
2018-07-20T19:22:30.432Z,29.70
2018-07-20T19:24:58.758Z,29.70
2018-07-20T19:29:55.204Z,29.60
2018-07-20T19:34:51.701Z,29.50
2018-07-20T19:37:20.016Z,29.50
2018-07-20T19:39:48.493Z,29.50
2018-07-20T19:42:16.792Z,29.40
2018-07-20T19:44:45.106Z,29.20
2018-07-20T19:47:13.542Z,29.10
2018-07-20T19:52:09.944Z,29.10
2018-07-20T19:54:38.266Z,29.10
2018-07-20T19:57:06.812Z,29.10
2018-07-20T19:59:35.300Z,29.00
2018-07-20T20:02:03.635Z,28.90
2018-07-20T20:04:32.179Z,28.90
2018-07-20T20:07:00.713Z,28.80
2018-07-20T20:09:29.087Z,28.70
2018-07-20T20:11:57.401Z,28.60
2018-07-20T20:14:25.742Z,28.50
2018-07-20T20:16:54.041Z,28.40
2018-07-20T20:19:22.424Z,28.50
2018-07-20T20:21:50.781Z,28.30
2018-07-20T20:24:19.242Z,28.10
2018-07-20T20:26:47.591Z,28.00
2018-07-20T20:29:15.990Z,27.90
2018-07-20T20:31:44.389Z,27.90
2018-07-20T20:34:12.779Z,27.90
2018-07-20T20:36:41.057Z,27.90
2018-07-20T20:39:11.519Z,27.90
2018-07-20T20:41:39.828Z,27.70
2018-07-20T20:44:08.454Z,27.60
2018-07-20T20:46:37.013Z,27.50
2018-07-20T20:49:05.471Z,27.40
2018-07-20T20:51:33.804Z,27.40
2018-07-20T20:54:02.131Z,27.40
2018-07-20T20:56:30.450Z,27.40
2018-07-20T20:58:58.816Z,27.40
2018-07-20T21:01:27.141Z,27.30
2018-07-20T21:03:55.476Z,27.30
2018-07-20T21:06:23.803Z,27.20
2018-07-20T21:08:52.108Z,27.20
2018-07-20T21:11:20.476Z,27.30
2018-07-20T21:13:48.828Z,27.30
2018-07-20T21:16:17.135Z,27.30
2018-07-20T21:18:45.467Z,27.30
2018-07-20T21:21:13.769Z,27.30
2018-07-20T21:23:42.093Z,27.20
2018-07-20T21:26:10.389Z,27.30
2018-07-20T21:28:38.720Z,27.20
2018-07-20T21:31:07.348Z,27.10
2018-07-20T21:33:35.685Z,27.10
2018-07-20T21:36:03.980Z,27.10
2018-07-20T21:38:32.345Z,27.10
2018-07-20T21:41:00.719Z,27.10
2018-07-20T21:43:29.042Z,27.00
2018-07-20T21:45:57.345Z,26.70
2018-07-20T21:48:25.699Z,26.70
2018-07-20T21:50:54.047Z,26.60
2018-07-20T21:53:22.336Z,26.50
2018-07-20T21:55:50.640Z,26.50
2018-07-20T21:58:18.951Z,26.50
2018-07-20T22:00:47.248Z,26.50
2018-07-20T22:03:15.567Z,26.40
2018-07-20T22:05:43.881Z,26.40
2018-07-20T22:08:12.219Z,26.40
2018-07-20T22:10:40.538Z,26.30
2018-07-20T22:13:08.832Z,26.30
2018-07-20T22:15:37.199Z,26.20
2018-07-20T22:18:05.531Z,26.30
2018-07-20T22:20:33.912Z,26.30
2018-07-20T22:23:02.213Z,26.30
2018-07-20T22:25:30.568Z,26.30
2018-07-20T22:30:26.918Z,26.40
2018-07-20T22:35:23.296Z,26.20
2018-07-20T22:37:51.613Z,26.20
2018-07-20T22:40:19.990Z,26.30
2018-07-20T22:42:48.295Z,26.30
2018-07-20T22:45:16.610Z,26.30
2018-07-20T22:47:44.916Z,26.30
2018-07-20T22:50:13.249Z,26.30
2018-07-20T22:52:41.646Z,26.20
2018-07-20T22:55:10.051Z,26.20
2018-07-20T22:57:38.339Z,26.20
2018-07-20T23:00:06.919Z,26.20
2018-07-20T23:02:35.225Z,26.10
2018-07-20T23:05:03.651Z,26.10
2018-07-20T23:07:31.983Z,26.00
2018-07-20T23:10:00.294Z,26.00
2018-07-20T23:12:28.592Z,25.90
2018-07-20T23:14:56.903Z,25.90
2018-07-20T23:17:25.201Z,25.90
2018-07-20T23:19:53.538Z,25.90
2018-07-20T23:22:21.864Z,25.90
2018-07-20T23:24:50.197Z,25.80
2018-07-20T23:27:18.492Z,25.80
2018-07-20T23:29:46.823Z,25.80
2018-07-20T23:32:15.136Z,25.80
2018-07-20T23:34:43.437Z,25.80
2018-07-20T23:37:11.718Z,25.60
2018-07-20T23:39:40.067Z,25.60
2018-07-20T23:42:08.382Z,25.60
2018-07-20T23:44:36.687Z,25.50
2018-07-20T23:47:05.883Z,25.50
2018-07-20T23:49:34.262Z,25.50
2018-07-20T23:52:02.564Z,25.50
2018-07-20T23:54:30.927Z,25.50
2018-07-20T23:56:59.214Z,25.40
2018-07-20T23:59:27.518Z,25.40
